logo dgac
Martes 21 de Septiembre del 2021
Buscar por aerodromo o helipuerto
Ingrese nombre de aeródromo, localidad o designador OACI:

Aeródromo: Viña del Mar (PUB) (SCVM)

Ubicación: Viña del Mar, V Región, Chile (32º 56' 59'' S, 71º 28' 43'' W) Ver ubicación en el mapa

Pistas

Orientación Dimensión Pendiente Superficie Resistencia APCH THR RWY PAPI
05/23 1750 x 30 0,60 ASPH PCN 30 F/B/X/T Sí (3.2º)
Horas de operación H24
Elevación 140 m / 461 ft
Otra Información Adm : Armada de Chile
Uso : PUB
TEL : Jefatura: 991581732 (CEL) / ARO: 224392746 (TEL) / 991581733 (CEL)
Ubicado a 15 km NE de Viña del Mar
email : aro.vina@dgac.gob.cl

Otra información ver AIP-Chile Volumen I AD 3.9-20.6-V
CCCM/FCCV Descargar
andera de Chile
Mapa de Viña del Mar (PUB) (SCVM)

Último METAR

METAR SCVM 211000Z 10002KT 9999 FEW020 07/06 Q1015

Último TAF

TAF SCVM 211000Z 2112/2212 26003KT 9999 BKN010 TX15/2118Z TN10/2210Z TEMPO 2112/2115 4000 BR BKN008 BECMG 2116/2118 30010KT BECMG 2202/2204 30004KT BKN020

Últimas fotos cámaras

Imagen aerodromo Viña del Mar (PUB) (SCVM) S-Oeste tomada el 21-09-2021 10:37:19 Imagen aerodromo Viña del Mar (PUB) (SCVM) N-Este tomada el 21-09-2021 10:37:38

Último NOTAM

C4185/21 NOTAMN Q)SCEZ/QMRLC/IV/NBO/A/000/999/3257S07129W005 A)SCVM B)2109221030 C)2109221130 E)RWY 23/05 CLSD DEBIDO A CALIBRACION DE COMPASES DE ACFT EN THR 23